Time;durP1;ratioP1;P1;durP2;ratioP2;P2;SDS_P1;SDS_P2;PMS_P1;PMS_P2;Temp;Humidity;BMP_temperature;BMP_pressure;BME280_temperature;BME280_humidity;BME280_pressure;Samples;Min_cycle;Max_cycle;Signal;HPM_P1;HPM_P2
2021/10/07 00:00:13;;;;;;;3.63;1.00;;;;;;;;;;5027650;28;20026;-74
2021/10/07 00:02:40;;;;;;;4.00;1.17;;;;;;;;;;5018742;28;20037;-75
2021/10/07 00:05:07;;;;;;;11.68;1.92;;;;;;;;;;5013304;28;20026;-74
2021/10/07 00:07:33;;;;;;;4.65;0.98;;;;;;;;;;5022357;28;20073;-74
2021/10/07 00:09:59;;;;;;;6.75;1.35;;;;;;;;;;5012134;28;20215;-74
2021/10/07 00:12:26;;;;;;;9.02;1.60;;;;;;;;;;5021003;28;20022;-74
2021/10/07 00:14:52;;;;;;;6.70;1.80;;;;;;;;;;5019287;28;20401;-74
2021/10/07 00:17:18;;;;;;;5.43;1.20;;;;;;;;;;5022457;28;20021;-75
2021/10/07 00:19:44;;;;;;;8.63;1.38;;;;;;;;;;5022564;28;20037;-75
2021/10/07 00:22:11;;;;;;;7.15;1.67;;;;;;;;;;5014194;28;20177;-75
2021/10/07 00:24:37;;;;;;;5.70;1.35;;;;;;;;;;5020522;28;20029;-74
2021/10/07 00:27:04;;;;;;;6.47;1.60;;;;;;;;;;5020910;28;20099;-74
2021/10/07 00:29:39;;;;;;;6.65;1.83;;;;;;;;;;5014635;28;20501;-75
2021/10/07 00:32:19;;;;;;;7.55;1.58;;;;;;;;;;5015662;28;20091;-74
2021/10/07 00:40:06;;;;;;;11.02;1.77;;;;;;;;;;5014047;28;20493;-73
2021/10/07 00:42:32;;;;;;;13.43;2.97;;;;;;;;;;5022010;28;20456;-73
2021/10/07 00:44:59;;;;;;;9.20;2.08;;;;;;;;;;5021803;28;20596;-74
2021/10/07 00:47:25;;;;;;;7.57;1.73;;;;;;;;;;5020435;28;20107;-74
2021/10/07 00:49:51;;;;;;;6.35;1.85;;;;;;;;;;5021337;28;20037;-74
2021/10/07 00:52:18;;;;;;;7.07;1.77;;;;;;;;;;5021330;28;20029;-73
2021/10/07 00:54:45;;;;;;;10.25;2.20;;;;;;;;;;5021438;28;20033;-74
2021/10/07 00:57:17;;;;;;;13.73;3.35;;;;;;;;;;5011815;28;20112;-74
2021/10/07 00:59:43;;;;;;;11.70;2.08;;;;;;;;;;5016271;28;20057;-74
2021/10/07 01:02:09;;;;;;;8.98;2.10;;;;;;;;;;5004371;28;20122;-75
2021/10/07 01:04:36;;;;;;;5.85;1.40;;;;;;;;;;5011417;28;20521;-74
2021/10/07 01:07:03;;;;;;;11.52;2.50;;;;;;;;;;5021614;28;20939;-74
2021/10/07 01:09:30;;;;;;;9.38;1.73;;;;;;;;;;5021528;28;20527;-74
2021/10/07 01:11:57;;;;;;;9.38;2.20;;;;;;;;;;5021490;28;20108;-74
2021/10/07 01:14:32;;;;;;;7.40;2.03;;;;;;;;;;5020377;28;20428;-74
2021/10/07 01:17:00;;;;;;;6.43;2.03;;;;;;;;;;5014792;28;20026;-75
2021/10/07 01:19:27;;;;;;;10.70;2.35;;;;;;;;;;5019392;28;20038;-74
2021/10/07 01:21:53;;;;;;;7.07;1.75;;;;;;;;;;5021286;28;20354;-74
2021/10/07 01:24:20;;;;;;;5.63;1.52;;;;;;;;;;5019887;28;20468;-74
2021/10/07 01:26:49;;;;;;;8.13;1.88;;;;;;;;;;5020360;28;20029;-73
2021/10/07 01:29:15;;;;;;;10.00;1.90;;;;;;;;;;5010958;28;20063;-73
2021/10/07 01:31:41;;;;;;;9.15;2.03;;;;;;;;;;5020981;28;20044;-74
2021/10/07 01:34:08;;;;;;;13.23;2.35;;;;;;;;;;5021211;28;20177;-73
2021/10/07 01:36:34;;;;;;;7.15;1.60;;;;;;;;;;5020167;28;20030;-74
2021/10/07 01:39:00;;;;;;;12.70;2.47;;;;;;;;;;5019967;28;20026;-74
2021/10/07 01:41:26;;;;;;;14.13;2.63;;;;;;;;;;5012998;28;20029;-74
2021/10/07 01:43:56;;;;;;;14.45;2.35;;;;;;;;;;5021261;28;20025;-74
2021/10/07 01:46:23;;;;;;;12.63;2.63;;;;;;;;;;5020812;28;20036;-74
2021/10/07 01:48:49;;;;;;;16.73;2.95;;;;;;;;;;5020674;28;20139;-73
2021/10/07 01:51:15;;;;;;;12.60;2.88;;;;;;;;;;5020465;28;20030;-74
2021/10/07 01:53:41;;;;;;;14.45;2.45;;;;;;;;;;5012092;28;20648;-74
2021/10/07 01:56:07;;;;;;;12.35;3.00;;;;;;;;;;5021305;28;20440;-74
2021/10/07 01:58:34;;;;;;;14.25;2.92;;;;;;;;;;5019519;28;20083;-75
2021/10/07 02:01:00;;;;;;;13.50;2.53;;;;;;;;;;5019877;28;20029;-74
2021/10/07 02:03:26;;;;;;;8.25;2.60;;;;;;;;;;5024686;28;20029;-74
2021/10/07 02:05:52;;;;;;;12.65;2.67;;;;;;;;;;5020161;28;20137;-74
2021/10/07 02:08:18;;;;;;;9.40;2.40;;;;;;;;;;5017032;28;20033;-74
2021/10/07 02:10:44;;;;;;;20.95;3.38;;;;;;;;;;5024364;28;20198;-74
2021/10/07 02:13:10;;;;;;;14.05;2.70;;;;;;;;;;5023393;28;20797;-73
2021/10/07 02:15:37;;;;;;;10.35;2.15;;;;;;;;;;5022927;28;20498;-74
2021/10/07 02:18:03;;;;;;;14.57;2.58;;;;;;;;;;5019276;28;20032;-74
2021/10/07 02:20:29;;;;;;;10.55;2.33;;;;;;;;;;5021928;28;20034;-73
2021/10/07 02:22:55;;;;;;;17.48;2.72;;;;;;;;;;5023516;28;20033;-73
2021/10/07 02:25:22;;;;;;;14.40;2.25;;;;;;;;;;5022765;28;20034;-74
2021/10/07 02:27:48;;;;;;;15.65;2.88;;;;;;;;;;5024234;28;20060;-74
2021/10/07 02:30:15;;;;;;;12.02;2.45;;;;;;;;;;5017987;28;20620;-73
2021/10/07 02:32:41;;;;;;;15.75;2.65;;;;;;;;;;5022672;28;20478;-74
2021/10/07 02:35:08;;;;;;;11.70;2.10;;;;;;;;;;5022667;28;20107;-74
2021/10/07 02:37:34;;;;;;;8.35;2.15;;;;;;;;;;5019708;28;20060;-74
2021/10/07 02:40:01;;;;;;;7.90;1.83;;;;;;;;;;5024620;28;20108;-74
2021/10/07 02:42:27;;;;;;;19.88;3.35;;;;;;;;;;5017173;28;20041;-73
2021/10/07 02:44:53;;;;;;;13.00;2.15;;;;;;;;;;5022927;28;21130;-74
2021/10/07 02:47:19;;;;;;;14.18;2.28;;;;;;;;;;5016560;28;20462;-74
2021/10/07 02:49:45;;;;;;;10.60;2.53;;;;;;;;;;5022066;28;20409;-74
2021/10/07 02:52:12;;;;;;;7.80;2.15;;;;;;;;;;5024268;28;20033;-73
2021/10/07 02:54:38;;;;;;;11.27;2.47;;;;;;;;;;5023829;28;20030;-73
2021/10/07 02:57:04;;;;;;;11.48;2.75;;;;;;;;;;5020393;28;20030;-74
2021/10/07 02:59:30;;;;;;;15.32;2.25;;;;;;;;;;5020436;28;20025;-73
2021/10/07 03:01:56;;;;;;;12.38;1.98;;;;;;;;;;5021129;28;20320;-74
2021/10/07 03:04:23;;;;;;;9.52;1.95;;;;;;;;;;5023738;28;20168;-74
2021/10/07 03:06:49;;;;;;;8.57;1.80;;;;;;;;;;5022190;28;20045;-73
2021/10/07 03:09:15;;;;;;;11.15;1.83;;;;;;;;;;5015951;28;20043;-73
2021/10/07 03:11:41;;;;;;;15.02;2.08;;;;;;;;;;5020434;28;20033;-74
2021/10/07 03:14:07;;;;;;;8.10;1.60;;;;;;;;;;5007502;28;20059;-73
2021/10/07 03:16:34;;;;;;;8.90;1.98;;;;;;;;;;5023648;28;20030;-74
2021/10/07 03:19:00;;;;;;;10.57;2.13;;;;;;;;;;5023054;28;20034;-74
2021/10/07 03:21:26;;;;;;;12.38;2.13;;;;;;;;;;5023568;28;20032;-73
2021/10/07 03:23:52;;;;;;;8.43;2.17;;;;;;;;;;5022732;28;20124;-74
2021/10/07 03:26:18;;;;;;;9.80;1.88;;;;;;;;;;5021911;28;20029;-74
2021/10/07 03:28:44;;;;;;;10.68;1.90;;;;;;;;;;5022453;28;20053;-74
2021/10/07 03:31:11;;;;;;;9.65;2.63;;;;;;;;;;5023309;28;20036;-73
2021/10/07 03:33:37;;;;;;;10.77;2.22;;;;;;;;;;5023049;28;20041;-73
2021/10/07 03:36:03;;;;;;;9.45;2.55;;;;;;;;;;5020505;28;20044;-73
2021/10/07 03:38:30;;;;;;;11.80;1.75;;;;;;;;;;5022787;28;20033;-74
2021/10/07 03:40:57;;;;;;;8.60;2.38;;;;;;;;;;5022742;28;20032;-74
2021/10/07 03:43:23;;;;;;;13.05;2.55;;;;;;;;;;5022919;28;20595;-75
2021/10/07 03:45:50;;;;;;;8.85;2.28;;;;;;;;;;5022778;28;20026;-74
2021/10/07 03:48:16;;;;;;;8.68;1.80;;;;;;;;;;5022339;28;20032;-74
2021/10/07 03:50:42;;;;;;;13.02;2.58;;;;;;;;;;5021584;28;20076;-75
2021/10/07 03:53:08;;;;;;;14.57;1.77;;;;;;;;;;5022742;28;20029;-74
2021/10/07 03:55:34;;;;;;;12.25;2.30;;;;;;;;;;5020861;28;20528;-74
2021/10/07 03:58:01;;;;;;;9.68;1.67;;;;;;;;;;5008588;28;20424;-74
2021/10/07 04:00:27;;;;;;;7.75;2.40;;;;;;;;;;5020112;28;20030;-74
2021/10/07 04:02:53;;;;;;;10.80;2.17;;;;;;;;;;5019024;28;20116;-74
2021/10/07 04:05:20;;;;;;;9.68;1.95;;;;;;;;;;5011796;28;20026;-74
2021/10/07 04:07:46;;;;;;;9.30;2.10;;;;;;;;;;5015296;28;20036;-74
2021/10/07 04:10:12;;;;;;;12.05;1.88;;;;;;;;;;5019874;28;20041;-73
2021/10/07 04:12:38;;;;;;;13.82;2.42;;;;;;;;;;5017884;28;20098;-73
2021/10/07 04:15:05;;;;;;;7.10;1.98;;;;;;;;;;5011799;28;20030;-74
2021/10/07 04:17:31;;;;;;;11.70;1.95;;;;;;;;;;5020613;28;20648;-73
2021/10/07 04:19:57;;;;;;;8.88;2.00;;;;;;;;;;5019983;28;20634;-74
2021/10/07 04:22:24;;;;;;;8.20;1.77;;;;;;;;;;5019835;28;20033;-74
2021/10/07 04:24:50;;;;;;;11.35;2.25;;;;;;;;;;5020355;28;20039;-75
2021/10/07 04:27:16;;;;;;;10.40;1.80;;;;;;;;;;5009879;28;20037;-75
2021/10/07 04:29:43;;;;;;;9.07;2.33;;;;;;;;;;5019648;28;20409;-74
2021/10/07 04:32:09;;;;;;;12.15;2.88;;;;;;;;;;5019172;28;20794;-75
2021/10/07 04:34:35;;;;;;;10.50;2.95;;;;;;;;;;5019733;28;20029;-74
2021/10/07 04:37:01;;;;;;;9.80;2.08;;;;;;;;;;5013162;28;20026;-74
2021/10/07 04:39:28;;;;;;;6.63;1.90;;;;;;;;;;5018911;28;20504;-74
2021/10/07 04:41:54;;;;;;;9.07;1.42;;;;;;;;;;5019698;28;20667;-74
2021/10/07 04:44:21;;;;;;;15.98;2.78;;;;;;;;;;5018614;28;20028;-75
2021/10/07 04:46:47;;;;;;;9.27;1.90;;;;;;;;;;5018593;28;20033;-74
2021/10/07 04:49:13;;;;;;;7.10;1.88;;;;;;;;;;5017650;28;20542;-74
2021/10/07 04:51:40;;;;;;;6.07;1.38;;;;;;;;;;5019315;28;20033;-74
2021/10/07 04:54:06;;;;;;;11.18;2.53;;;;;;;;;;5018653;28;20075;-74
2021/10/07 04:56:32;;;;;;;13.15;2.95;;;;;;;;;;5017039;28;20026;-74
2021/10/07 04:58:58;;;;;;;11.70;2.10;;;;;;;;;;5012494;28;20120;-74
2021/10/07 05:01:24;;;;;;;7.15;1.50;;;;;;;;;;5017459;28;20021;-74
2021/10/07 05:03:51;;;;;;;6.10;2.42;;;;;;;;;;5019334;28;20053;-75
2021/10/07 05:06:18;;;;;;;8.02;1.75;;;;;;;;;;5017905;28;20129;-73
2021/10/07 05:08:44;;;;;;;12.05;2.20;;;;;;;;;;5007856;28;20033;-74
2021/10/07 05:11:10;;;;;;;11.68;2.38;;;;;;;;;;5017889;28;20036;-74
2021/10/07 05:13:36;;;;;;;8.48;2.00;;;;;;;;;;5018032;28;20037;-73
2021/10/07 05:16:02;;;;;;;9.75;2.00;;;;;;;;;;5019291;28;20033;-74
2021/10/07 05:18:29;;;;;;;9.98;1.83;;;;;;;;;;5017571;28;20756;-74
2021/10/07 05:20:55;;;;;;;11.30;2.45;;;;;;;;;;5018847;28;20032;-74
2021/10/07 05:23:21;;;;;;;12.57;2.33;;;;;;;;;;5017773;28;20020;-74
2021/10/07 05:25:48;;;;;;;7.85;1.85;;;;;;;;;;5010924;28;20095;-74
2021/10/07 05:28:14;;;;;;;14.43;2.40;;;;;;;;;;5018377;28;20041;-75
2021/10/07 05:30:40;;;;;;;9.75;1.92;;;;;;;;;;5017072;28;20041;-74
2021/10/07 05:33:06;;;;;;;8.32;2.15;;;;;;;;;;5018860;28;20112;-74
2021/10/07 05:35:33;;;;;;;8.43;2.20;;;;;;;;;;5016050;28;20827;-73
2021/10/07 05:37:59;;;;;;;11.38;2.53;;;;;;;;;;5018641;28;20033;-73
2021/10/07 05:40:25;;;;;;;9.40;2.40;;;;;;;;;;5016648;28;20116;-74
2021/10/07 05:42:52;;;;;;;9.50;2.22;;;;;;;;;;5018707;28;20037;-74
2021/10/07 05:45:18;;;;;;;8.35;1.77;;;;;;;;;;5018612;28;20033;-74
2021/10/07 05:47:44;;;;;;;8.45;1.90;;;;;;;;;;5018428;28;20044;-74
2021/10/07 05:50:11;;;;;;;10.52;2.30;;;;;;;;;;5010013;28;20488;-74
2021/10/07 05:52:37;;;;;;;9.32;2.35;;;;;;;;;;5012662;28;20378;-75
2021/10/07 05:55:06;;;;;;;9.90;2.40;;;;;;;;;;5013379;28;20420;-74
2021/10/07 05:57:33;;;;;;;8.90;1.92;;;;;;;;;;5007645;28;20038;-74
2021/10/07 05:59:59;;;;;;;11.27;2.25;;;;;;;;;;5013611;28;20021;-74
2021/10/07 06:02:25;;;;;;;9.90;2.70;;;;;;;;;;5015749;28;21189;-75
2021/10/07 06:04:51;;;;;;;9.23;1.70;;;;;;;;;;5048740;28;20026;-74
2021/10/07 06:07:17;;;;;;;8.00;1.58;;;;;;;;;;5003613;28;20057;-75
2021/10/07 06:09:43;;;;;;;7.97;1.70;;;;;;;;;;5001841;28;20077;-73
2021/10/07 06:12:10;;;;;;;11.05;1.85;;;;;;;;;;5000855;28;20026;-75
2021/10/07 06:14:36;;;;;;;9.25;2.03;;;;;;;;;;5001936;28;20026;-74
2021/10/07 06:17:02;;;;;;;12.32;2.40;;;;;;;;;;5005422;28;20037;-74
2021/10/07 06:19:33;;;;;;;10.57;2.00;;;;;;;;;;5009524;28;20034;-75
2021/10/07 06:21:59;;;;;;;10.90;2.20;;;;;;;;;;5009969;28;20036;-75
2021/10/07 06:24:25;;;;;;;13.13;2.58;;;;;;;;;;5020983;28;20026;-73
2021/10/07 06:26:51;;;;;;;9.15;2.33;;;;;;;;;;5019553;28;20029;-74
2021/10/07 06:29:18;;;;;;;9.25;1.98;;;;;;;;;;5021078;28;20290;-73
2021/10/07 06:31:44;;;;;;;13.05;2.85;;;;;;;;;;5021633;28;20032;-73
2021/10/07 06:34:10;;;;;;;10.68;2.00;;;;;;;;;;5019586;28;20021;-73
2021/10/07 06:36:36;;;;;;;10.10;2.22;;;;;;;;;;5018158;28;20037;-74
2021/10/07 06:39:04;;;;;;;10.75;2.72;;;;;;;;;;5021118;28;20095;-73
2021/10/07 06:41:30;;;;;;;14.68;2.22;;;;;;;;;;5021104;28;20041;-73
2021/10/07 06:43:56;;;;;;;12.85;2.33;;;;;;;;;;5017797;28;20021;-73
2021/10/07 06:46:25;;;;;;;8.63;2.17;;;;;;;;;;5020501;28;20034;-74
2021/10/07 06:48:54;;;;;;;14.68;2.10;;;;;;;;;;5005370;28;20035;-74
2021/10/07 06:51:21;;;;;;;13.57;3.55;;;;;;;;;;5029053;28;20543;-73
2021/10/07 06:53:52;;;;;;;15.23;2.85;;;;;;;;;;5004702;28;20080;-73
2021/10/07 06:56:19;;;;;;;9.82;2.22;;;;;;;;;;5003985;28;20041;-74
2021/10/07 06:58:45;;;;;;;11.20;2.58;;;;;;;;;;5004331;28;20757;-73
2021/10/07 07:01:11;;;;;;;14.63;2.88;;;;;;;;;;5004106;28;20571;-73
2021/10/07 07:03:37;;;;;;;15.07;2.30;;;;;;;;;;5002754;28;20537;-74
2021/10/07 07:06:03;;;;;;;15.80;2.80;;;;;;;;;;5004283;28;20057;-72
2021/10/07 07:08:30;;;;;;;16.13;2.67;;;;;;;;;;5003911;28;20025;-73
2021/10/07 07:10:57;;;;;;;10.23;3.03;;;;;;;;;;5003988;28;20037;-73
2021/10/07 07:13:23;;;;;;;10.98;2.47;;;;;;;;;;5002899;28;20033;-74
2021/10/07 07:15:49;;;;;;;10.63;2.22;;;;;;;;;;5009972;28;20045;-73
2021/10/07 07:18:15;;;;;;;8.63;2.28;;;;;;;;;;5024186;28;20022;-73
2021/10/07 07:20:42;;;;;;;12.05;2.90;;;;;;;;;;5024526;28;20381;-73
2021/10/07 07:23:12;;;;;;;9.35;2.60;;;;;;;;;;5024685;28;20025;-73
2021/10/07 07:25:38;;;;;;;10.73;2.80;;;;;;;;;;5023056;28;20503;-73
2021/10/07 07:28:05;;;;;;;14.48;3.05;;;;;;;;;;5024265;28;20076;-73
2021/10/07 07:30:31;;;;;;;13.10;2.72;;;;;;;;;;5023902;28;20056;-73
2021/10/07 07:32:57;;;;;;;9.15;2.17;;;;;;;;;;5024188;28;20114;-73
2021/10/07 07:35:25;;;;;;;9.93;1.85;;;;;;;;;;5021961;28;20037;-75
2021/10/07 07:37:51;;;;;;;8.45;1.98;;;;;;;;;;5024012;28;20079;-73
2021/10/07 07:40:17;;;;;;;12.88;2.35;;;;;;;;;;5024271;28;20550;-73
2021/10/07 07:42:43;;;;;;;9.90;2.47;;;;;;;;;;5021193;28;20369;-73
2021/10/07 07:45:10;;;;;;;14.60;2.33;;;;;;;;;;5023876;28;20934;-72
2021/10/07 07:47:41;;;;;;;18.20;2.60;;;;;;;;;;5023938;28;20028;-73
2021/10/07 07:50:07;;;;;;;15.93;2.90;;;;;;;;;;5024211;28;20095;-73
2021/10/07 07:52:34;;;;;;;10.52;2.78;;;;;;;;;;5023681;28;20013;-73
2021/10/07 07:55:00;;;;;;;11.70;2.95;;;;;;;;;;5021455;28;20032;-74
2021/10/07 07:57:26;;;;;;;9.25;2.30;;;;;;;;;;5023111;28;20033;-73
2021/10/07 07:59:52;;;;;;;13.63;2.47;;;;;;;;;;5023704;28;20025;-73
2021/10/07 08:02:19;;;;;;;12.90;2.40;;;;;;;;;;5019456;28;20029;-74
2021/10/07 08:04:46;;;;;;;9.32;2.20;;;;;;;;;;4999087;28;20383;-75
2021/10/07 08:07:13;;;;;;;11.40;2.33;;;;;;;;;;5003640;28;20497;-73
2021/10/07 08:09:44;;;;;;;11.70;2.22;;;;;;;;;;5002807;28;20048;-75
2021/10/07 08:12:12;;;;;;;10.07;2.40;;;;;;;;;;5003044;28;20022;-73
2021/10/07 08:14:39;;;;;;;12.98;2.13;;;;;;;;;;5003808;28;20029;-73
2021/10/07 08:17:05;;;;;;;9.55;1.83;;;;;;;;;;5002103;28;20164;-73
2021/10/07 08:19:31;;;;;;;11.57;1.95;;;;;;;;;;5003557;28;20042;-73
2021/10/07 08:21:57;;;;;;;11.57;2.03;;;;;;;;;;5003179;28;20024;-72
2021/10/07 08:24:24;;;;;;;11.43;2.00;;;;;;;;;;5003482;28;20036;-73
2021/10/07 08:26:50;;;;;;;6.95;2.10;;;;;;;;;;5003603;28;20096;-73
2021/10/07 08:29:16;;;;;;;9.68;2.38;;;;;;;;;;5003898;28;20049;-73
2021/10/07 08:31:42;;;;;;;10.02;2.20;;;;;;;;;;5018979;28;20038;-73
2021/10/07 08:34:09;;;;;;;6.30;2.10;;;;;;;;;;5002131;28;20617;-73
2021/10/07 08:36:42;;;;;;;9.45;2.50;;;;;;;;;;5007083;28;20021;-72
2021/10/07 08:39:11;;;;;;;18.27;2.95;;;;;;;;;;5018845;28;20096;-73
2021/10/07 08:41:38;;;;;;;10.82;2.33;;;;;;;;;;5021964;28;20075;-73
2021/10/07 08:44:04;;;;;;;10.13;2.58;;;;;;;;;;5022278;28;20473;-73
2021/10/07 08:46:31;;;;;;;16.73;2.90;;;;;;;;;;5021989;28;20025;-73
2021/10/07 08:48:59;;;;;;;18.50;2.90;;;;;;;;;;5020808;28;20038;-73
2021/10/07 08:51:25;;;;;;;11.23;2.17;;;;;;;;;;5021007;28;20040;-73
2021/10/07 08:53:52;;;;;;;8.60;2.05;;;;;;;;;;5021229;28;20017;-73
2021/10/07 08:56:20;;;;;;;11.32;2.25;;;;;;;;;;5013071;28;20033;-74
2021/10/07 08:58:46;;;;;;;13.40;2.78;;;;;;;;;;5026840;28;20638;-73
2021/10/07 09:01:32;;;;;;;8.68;2.05;;;;;;;;;;5003019;28;20034;-73
2021/10/07 09:03:59;;;;;;;9.95;2.20;;;;;;;;;;5002138;28;20048;-73
2021/10/07 09:06:27;;;;;;;11.02;2.38;;;;;;;;;;5000690;28;20014;-74
2021/10/07 09:08:54;;;;;;;6.30;2.15;;;;;;;;;;5002084;28;20037;-73
2021/10/07 09:11:30;;;;;;;12.15;2.17;;;;;;;;;;5001833;28;20035;-73
2021/10/07 09:14:04;;;;;;;7.72;2.13;;;;;;;;;;5034388;28;20034;-74
2021/10/07 09:16:33;;;;;;;10.10;2.88;;;;;;;;;;5010610;28;20576;-74
2021/10/07 09:19:19;;;;;;;10.95;2.67;;;;;;;;;;5004104;28;20044;-73
2021/10/07 09:21:46;;;;;;;12.85;2.38;;;;;;;;;;5004850;28;20022;-74
2021/10/07 09:24:33;;;;;;;15.25;2.58;;;;;;;;;;5001601;28;20556;-73
2021/10/07 09:27:00;;;;;;;13.70;2.47;;;;;;;;;;5019377;28;20377;-74
2021/10/07 09:29:38;;;;;;;8.93;2.45;;;;;;;;;;5021124;28;20964;-73
2021/10/07 09:32:07;;;;;;;14.77;2.67;;;;;;;;;;5011609;28;20067;-74
2021/10/07 09:34:42;;;;;;;15.43;2.50;;;;;;;;;;5015086;28;20053;-73
2021/10/07 09:37:20;;;;;;;12.60;3.35;;;;;;;;;;5001918;28;20026;-73
2021/10/07 09:39:47;;;;;;;12.85;2.78;;;;;;;;;;5001912;28;20098;-73
2021/10/07 09:42:17;;;;;;;14.43;2.92;;;;;;;;;;5001707;28;20022;-72
2021/10/07 09:45:00;;;;;;;12.32;2.22;;;;;;;;;;5018849;28;20036;-73
2021/10/07 09:47:30;;;;;;;12.57;2.45;;;;;;;;;;5021104;28;20033;-74
2021/10/07 09:50:15;;;;;;;10.50;2.55;;;;;;;;;;5021261;28;20501;-73
2021/10/07 09:52:43;;;;;;;11.80;2.58;;;;;;;;;;5020881;28;20633;-74
2021/10/07 09:55:16;;;;;;;8.43;2.35;;;;;;;;;;5015436;28;20571;-73
2021/10/07 09:57:50;;;;;;;19.83;3.22;;;;;;;;;;5001041;28;20477;-73
2021/10/07 10:00:17;;;;;;;11.40;2.95;;;;;;;;;;5001351;28;20472;-74
2021/10/07 10:02:43;;;;;;;11.02;2.53;;;;;;;;;;5009835;28;20515;-73
2021/10/07 10:05:10;;;;;;;11.93;2.88;;;;;;;;;;5021230;28;20105;-74
2021/10/07 10:07:36;;;;;;;15.30;3.55;;;;;;;;;;5020304;28;20025;-73
2021/10/07 10:10:04;;;;;;;13.70;3.35;;;;;;;;;;5021961;28;20102;-73
2021/10/07 10:12:30;;;;;;;15.35;3.17;;;;;;;;;;5022567;28;20017;-73
2021/10/07 10:14:57;;;;;;;12.10;2.08;;;;;;;;;;5021694;28;20026;-73
2021/10/07 10:17:23;;;;;;;12.95;2.78;;;;;;;;;;5021577;28;20014;-73
2021/10/07 10:19:53;;;;;;;11.43;2.50;;;;;;;;;;5020135;28;20026;-73
2021/10/07 10:22:23;;;;;;;10.07;2.50;;;;;;;;;;5022274;28;20025;-73
2021/10/07 10:24:50;;;;;;;10.40;2.53;;;;;;;;;;5025319;28;20034;-73
2021/10/07 10:27:16;;;;;;;7.32;2.35;;;;;;;;;;5025416;28;20026;-73
2021/10/07 10:29:43;;;;;;;9.73;2.30;;;;;;;;;;5025407;28;20171;-74
2021/10/07 10:32:12;;;;;;;12.25;2.20;;;;;;;;;;5025823;28;20026;-73
2021/10/07 10:34:45;;;;;;;12.27;2.17;;;;;;;;;;5025248;28;20036;-72
2021/10/07 10:37:12;;;;;;;7.72;1.70;;;;;;;;;;5023975;28;20105;-73
2021/10/07 10:39:39;;;;;;;7.10;2.03;;;;;;;;;;5025235;28;20021;-73
2021/10/07 10:42:18;;;;;;;5.30;1.52;;;;;;;;;;5025348;28;20051;-73
2021/10/07 10:44:47;;;;;;;13.13;2.22;;;;;;;;;;5022185;28;20452;-73
2021/10/07 10:47:13;;;;;;;6.38;1.63;;;;;;;;;;5024543;28;20025;-74
2021/10/07 10:49:43;;;;;;;6.85;1.50;;;;;;;;;;5023613;28;20041;-73
2021/10/07 10:52:25;;;;;;;7.10;1.77;;;;;;;;;;5024178;28;20075;-72
2021/10/07 10:54:56;;;;;;;8.88;1.45;;;;;;;;;;5023973;28;20033;-69
2021/10/07 10:57:26;;;;;;;4.20;1.25;;;;;;;;;;5021978;28;20018;-69
2021/10/07 11:00:11;;;;;;;8.50;1.75;;;;;;;;;;5023589;28;20098;-73
2021/10/07 11:02:38;;;;;;;5.18;1.10;;;;;;;;;;5022330;28;20043;-73
2021/10/07 11:05:23;;;;;;;5.68;1.17;;;;;;;;;;5024424;28;20018;-73
2021/10/07 11:08:08;;;;;;;6.40;1.58;;;;;;;;;;5023136;28;20037;-70
2021/10/07 11:10:37;;;;;;;7.00;1.15;;;;;;;;;;5024460;28;20129;-73
2021/10/07 11:13:03;;;;;;;10.52;1.80;;;;;;;;;;5021814;28;20045;-69
2021/10/07 11:15:30;;;;;;;6.82;1.38;;;;;;;;;;5020030;28;20036;-71
2021/10/07 11:17:57;;;;;;;9.50;2.10;;;;;;;;;;5009448;28;20026;-72
2021/10/07 11:20:25;;;;;;;7.90;3.00;;;;;;;;;;5015822;28;20091;-72
2021/10/07 11:23:05;;;;;;;11.52;1.77;;;;;;;;;;5021302;28;20508;-72
2021/10/07 11:25:32;;;;;;;12.60;2.25;;;;;;;;;;5016357;28;20032;-71
2021/10/07 11:27:58;;;;;;;5.90;1.80;;;;;;;;;;5012582;28;20049;-71
2021/10/07 11:30:25;;;;;;;14.65;2.03;;;;;;;;;;5021395;28;20045;-71
2021/10/07 11:32:51;;;;;;;6.00;1.33;;;;;;;;;;5016883;28;20025;-73
2021/10/07 11:35:18;;;;;;;6.40;1.55;;;;;;;;;;5021833;28;20112;-71
2021/10/07 11:37:46;;;;;;;7.90;1.52;;;;;;;;;;5019427;28;20053;-71
2021/10/07 11:40:21;;;;;;;7.90;1.30;;;;;;;;;;5012126;28;20025;-73
2021/10/07 11:42:47;;;;;;;4.53;1.10;;;;;;;;;;5020854;28;20040;-73
2021/10/07 11:45:22;;;;;;;7.15;1.63;;;;;;;;;;5018260;28;20108;-73
2021/10/07 11:47:50;;;;;;;10.55;1.85;;;;;;;;;;5017485;28;20064;-73
2021/10/07 11:50:16;;;;;;;11.65;1.30;;;;;;;;;;5009766;28;20033;-71
2021/10/07 11:52:43;;;;;;;9.48;1.40;;;;;;;;;;5020741;28;20104;-70
2021/10/07 11:55:09;;;;;;;8.68;1.50;;;;;;;;;;5020634;28;20025;-71
2021/10/07 11:57:35;;;;;;;7.20;1.95;;;;;;;;;;5017964;28;20061;-70
2021/10/07 12:00:02;;;;;;;8.85;1.98;;;;;;;;;;5014415;28;20040;-74
2021/10/07 12:02:30;;;;;;;8.38;1.50;;;;;;;;;;5017436;28;20485;-71
2021/10/07 12:05:15;;;;;;;7.13;1.40;;;;;;;;;;5014306;28;20030;-71
2021/10/07 12:07:41;;;;;;;8.65;1.60;;;;;;;;;;5010393;28;20033;-71
2021/10/07 12:10:07;;;;;;;10.20;2.10;;;;;;;;;;5022268;28;20102;-71
2021/10/07 12:12:34;;;;;;;9.18;2.22;;;;;;;;;;5023150;28;20021;-71
2021/10/07 12:15:00;;;;;;;14.15;2.47;;;;;;;;;;5020286;28;20033;-72
2021/10/07 12:17:26;;;;;;;12.38;2.33;;;;;;;;;;5013284;28;20022;-73
2021/10/07 12:19:52;;;;;;;12.52;2.20;;;;;;;;;;5019331;28;20581;-71
2021/10/07 12:22:26;;;;;;;7.38;1.77;;;;;;;;;;5020092;28;20041;-71
2021/10/07 12:24:58;;;;;;;6.72;1.42;;;;;;;;;;5016916;28;21318;-71
2021/10/07 12:27:32;;;;;;;12.00;2.30;;;;;;;;;;5009549;28;20079;-73
2021/10/07 12:30:04;;;;;;;5.10;1.48;;;;;;;;;;5013140;28;20045;-70
2021/10/07 12:32:31;;;;;;;3.03;1.23;;;;;;;;;;5008258;28;20492;-71
2021/10/07 12:34:57;;;;;;;6.53;1.65;;;;;;;;;;5021748;28;20762;-71
2021/10/07 12:37:27;;;;;;;14.77;3.17;;;;;;;;;;5011985;28;20022;-71
2021/10/07 12:39:54;;;;;;;11.98;2.20;;;;;;;;;;5013845;28;20033;-70
2021/10/07 12:42:22;;;;;;;17.05;1.73;;;;;;;;;;5015445;28;20608;-72
2021/10/07 12:44:51;;;;;;;11.38;2.00;;;;;;;;;;5011603;28;20667;-72
2021/10/07 12:47:27;;;;;;;11.65;2.30;;;;;;;;;;5013235;28;20356;-72
2021/10/07 12:49:54;;;;;;;6.20;1.35;;;;;;;;;;5019259;28;20037;-72
2021/10/07 12:52:38;;;;;;;8.10;1.30;;;;;;;;;;5022095;28;20014;-72
2021/10/07 12:55:12;;;;;;;16.40;3.20;;;;;;;;;;5007302;28;20029;-73
2021/10/07 12:57:41;;;;;;;5.82;1.95;;;;;;;;;;5019676;28;20485;-74
2021/10/07 13:00:07;;;;;;;9.88;2.10;;;;;;;;;;5021819;28;20033;-72
2021/10/07 13:02:34;;;;;;;10.98;1.73;;;;;;;;;;5010898;28;20029;-72
2021/10/07 13:05:17;;;;;;;9.45;1.85;;;;;;;;;;5002369;28;20030;-72
2021/10/07 13:07:45;;;;;;;5.97;1.48;;;;;;;;;;5001689;28;20038;-72
2021/10/07 13:10:11;;;;;;;6.10;1.20;;;;;;;;;;5012328;28;20039;-73
2021/10/07 13:12:37;;;;;;;9.23;1.55;;;;;;;;;;5021408;28;20029;-71
2021/10/07 13:15:04;;;;;;;9.32;1.58;;;;;;;;;;5021760;28;20086;-71
2021/10/07 13:17:30;;;;;;;8.35;1.45;;;;;;;;;;5019699;28;20102;-72
2021/10/07 13:19:56;;;;;;;7.50;1.10;;;;;;;;;;5018958;28;20044;-71
2021/10/07 13:22:23;;;;;;;15.55;1.63;;;;;;;;;;5022032;28;20064;-72
2021/10/07 13:24:49;;;;;;;6.63;1.40;;;;;;;;;;5021211;28;20387;-71
2021/10/07 13:27:21;;;;;;;8.35;1.35;;;;;;;;;;5020849;28;20021;-71
2021/10/07 13:29:47;;;;;;;6.93;1.73;;;;;;;;;;5021185;28;20099;-71
2021/10/07 13:32:16;;;;;;;5.25;1.13;;;;;;;;;;5020945;28;20033;-71
2021/10/07 13:34:42;;;;;;;7.32;1.40;;;;;;;;;;5020198;28;20083;-72
2021/10/07 13:37:08;;;;;;;7.97;1.27;;;;;;;;;;5018338;28;20782;-71
2021/10/07 13:39:34;;;;;;;8.95;1.77;;;;;;;;;;5020309;28;20025;-70
2021/10/07 13:42:00;;;;;;;25.70;3.17;;;;;;;;;;5021178;28;20114;-71
2021/10/07 13:44:26;;;;;;;8.02;1.80;;;;;;;;;;5017479;28;20031;-73
2021/10/07 13:46:53;;;;;;;8.00;1.90;;;;;;;;;;5019653;28;20484;-72
2021/10/07 13:49:19;;;;;;;8.40;1.63;;;;;;;;;;5020123;28;20592;-73
2021/10/07 13:51:45;;;;;;;17.83;2.00;;;;;;;;;;5008757;28;20022;-75
2021/10/07 13:54:11;;;;;;;8.40;1.75;;;;;;;;;;5016499;28;20033;-73
2021/10/07 13:56:37;;;;;;;4.68;1.20;;;;;;;;;;5016735;28;20022;-75
2021/10/07 13:59:04;;;;;;;7.18;1.23;;;;;;;;;;5019415;28;20029;-73
2021/10/07 14:01:30;;;;;;;8.63;1.38;;;;;;;;;;5014860;28;20041;-74
2021/10/07 14:03:56;;;;;;;4.30;1.05;;;;;;;;;;5024211;28;20025;-71
2021/10/07 14:06:22;;;;;;;9.75;1.52;;;;;;;;;;5024668;28;20124;-71
2021/10/07 14:08:48;;;;;;;4.82;1.00;;;;;;;;;;5023813;28;20550;-74
2021/10/07 14:11:16;;;;;;;8.68;1.25;;;;;;;;;;5023330;28;20030;-73
2021/10/07 14:13:42;;;;;;;6.60;1.23;;;;;;;;;;5023408;28;20662;-73
2021/10/07 14:16:08;;;;;;;3.92;1.10;;;;;;;;;;5024053;28;20030;-73
2021/10/07 14:18:35;;;;;;;3.72;1.02;;;;;;;;;;5022612;28;20602;-73
2021/10/07 14:21:01;;;;;;;3.42;0.60;;;;;;;;;;5024419;28;20505;-73
2021/10/07 14:23:28;;;;;;;4.57;0.82;;;;;;;;;;5025310;28;20096;-73
2021/10/07 14:25:54;;;;;;;2.85;0.68;;;;;;;;;;5027559;28;20036;-73
2021/10/07 14:28:21;;;;;;;3.38;1.08;;;;;;;;;;5025378;28;20068;-74
2021/10/07 14:30:48;;;;;;;5.07;0.85;;;;;;;;;;5027671;28;20048;-73
2021/10/07 14:33:15;;;;;;;2.63;0.60;;;;;;;;;;5027421;28;20544;-74
2021/10/07 14:35:41;;;;;;;3.78;0.60;;;;;;;;;;5026120;28;20766;-72
2021/10/07 14:38:07;;;;;;;3.63;0.70;;;;;;;;;;5026744;28;20032;-72
2021/10/07 14:40:33;;;;;;;4.47;0.50;;;;;;;;;;5031835;28;20035;-73
2021/10/07 14:42:59;;;;;;;5.68;1.30;;;;;;;;;;5026201;28;20025;-72